sensor_id;sensor_type;location;lat;lon;timestamp;temperature;humidity
43627;DHT22;29217;52.586;13.442;2022-07-10T00:00:25;13.70;99.90
43627;DHT22;29217;52.586;13.442;2022-07-10T00:02:50;13.70;99.90
43627;DHT22;29217;52.586;13.442;2022-07-10T00:05:17;13.70;99.90
43627;DHT22;29217;52.586;13.442;2022-07-10T00:07:44;13.80;99.90
43627;DHT22;29217;52.586;13.442;2022-07-10T00:10:10;13.80;99.90
43627;DHT22;29217;52.586;13.442;2022-07-10T00:12:35;13.80;99.90
43627;DHT22;29217;52.586;13.442;2022-07-10T00:15:02;13.80;99.90
43627;DHT22;29217;52.586;13.442;2022-07-10T00:17:28;13.80;99.90
43627;DHT22;29217;52.586;13.442;2022-07-10T00:19:54;13.80;99.90
43627;DHT22;29217;52.586;13.442;2022-07-10T00:22:19;13.90;99.90
43627;DHT22;29217;52.586;13.442;2022-07-10T00:24:45;13.90;99.90
43627;DHT22;29217;52.586;13.442;2022-07-10T00:27:11;13.90;99.90
43627;DHT22;29217;52.586;13.442;2022-07-10T00:29:37;13.90;99.90
43627;DHT22;29217;52.586;13.442;2022-07-10T00:32:03;14.00;99.90
43627;DHT22;29217;52.586;13.442;2022-07-10T00:34:28;14.00;99.90
43627;DHT22;29217;52.586;13.442;2022-07-10T00:36:54;14.00;99.90
43627;DHT22;29217;52.586;13.442;2022-07-10T00:39:19;13.90;99.90
43627;DHT22;29217;52.586;13.442;2022-07-10T00:41:45;14.00;99.90
43627;DHT22;29217;52.586;13.442;2022-07-10T00:44:11;14.00;99.90
43627;DHT22;29217;52.586;13.442;2022-07-10T00:46:37;14.00;99.90
43627;DHT22;29217;52.586;13.442;2022-07-10T00:49:03;14.00;99.90
43627;DHT22;29217;52.586;13.442;2022-07-10T00:51:29;14.00;99.90
43627;DHT22;29217;52.586;13.442;2022-07-10T00:53:56;14.00;99.90
43627;DHT22;29217;52.586;13.442;2022-07-10T00:56:26;14.00;99.90
43627;DHT22;29217;52.586;13.442;2022-07-10T00:58:52;14.00;99.90
43627;DHT22;29217;52.586;13.442;2022-07-10T01:01:18;14.00;99.90
43627;DHT22;29217;52.586;13.442;2022-07-10T01:03:44;13.90;99.90
43627;DHT22;29217;52.586;13.442;2022-07-10T01:06:15;14.00;99.90
43627;DHT22;29217;52.586;13.442;2022-07-10T01:08:41;14.00;99.90
43627;DHT22;29217;52.586;13.442;2022-07-10T01:11:08;14.00;99.90
43627;DHT22;29217;52.586;13.442;2022-07-10T01:13:34;14.00;99.90
43627;DHT22;29217;52.586;13.442;2022-07-10T01:15:59;14.00;99.90
43627;DHT22;29217;52.586;13.442;2022-07-10T01:18:25;14.00;99.90
43627;DHT22;29217;52.586;13.442;2022-07-10T01:20:55;13.90;99.90
43627;DHT22;29217;52.586;13.442;2022-07-10T01:23:21;14.00;99.90
43627;DHT22;29217;52.586;13.442;2022-07-10T01:25:48;14.00;99.90
43627;DHT22;29217;52.586;13.442;2022-07-10T01:28:13;14.00;99.90
43627;DHT22;29217;52.586;13.442;2022-07-10T01:30:39;14.00;99.90
43627;DHT22;29217;52.586;13.442;2022-07-10T01:33:04;14.10;99.90
43627;DHT22;29217;52.586;13.442;2022-07-10T01:35:30;14.10;99.90
43627;DHT22;29217;52.586;13.442;2022-07-10T01:37:56;14.00;99.90
43627;DHT22;29217;52.586;13.442;2022-07-10T01:40:21;14.00;99.90
43627;DHT22;29217;52.586;13.442;2022-07-10T01:42:47;14.00;99.90
43627;DHT22;29217;52.586;13.442;2022-07-10T01:45:12;14.10;99.90
43627;DHT22;29217;52.586;13.442;2022-07-10T01:47:38;14.00;99.90
43627;DHT22;29217;52.586;13.442;2022-07-10T01:50:04;14.00;99.90
43627;DHT22;29217;52.586;13.442;2022-07-10T01:52:30;14.00;99.90
43627;DHT22;29217;52.586;13.442;2022-07-10T01:54:56;14.00;99.90
43627;DHT22;29217;52.586;13.442;2022-07-10T01:57:21;14.00;99.90
43627;DHT22;29217;52.586;13.442;2022-07-10T01:59:47;14.00;99.90
43627;DHT22;29217;52.586;13.442;2022-07-10T02:02:12;14.00;99.90
43627;DHT22;29217;52.586;13.442;2022-07-10T02:04:38;14.00;99.90
43627;DHT22;29217;52.586;13.442;2022-07-10T02:07:11;14.00;99.90
43627;DHT22;29217;52.586;13.442;2022-07-10T02:09:37;14.00;99.90
43627;DHT22;29217;52.586;13.442;2022-07-10T02:12:05;14.00;99.90
43627;DHT22;29217;52.586;13.442;2022-07-10T02:14:31;14.00;99.90
43627;DHT22;29217;52.586;13.442;2022-07-10T02:16:56;14.00;99.90
43627;DHT22;29217;52.586;13.442;2022-07-10T02:19:22;13.90;99.90
43627;DHT22;29217;52.586;13.442;2022-07-10T02:21:47;14.00;99.90
43627;DHT22;29217;52.586;13.442;2022-07-10T02:24:13;14.00;99.90
43627;DHT22;29217;52.586;13.442;2022-07-10T02:26:38;13.90;99.90
43627;DHT22;29217;52.586;13.442;2022-07-10T02:29:04;13.90;99.90
43627;DHT22;29217;52.586;13.442;2022-07-10T02:31:29;13.90;99.90
43627;DHT22;29217;52.586;13.442;2022-07-10T02:33:55;13.80;99.90
43627;DHT22;29217;52.586;13.442;2022-07-10T02:36:20;13.80;99.90
43627;DHT22;29217;52.586;13.442;2022-07-10T02:38:46;13.80;99.90
43627;DHT22;29217;52.586;13.442;2022-07-10T02:41:12;13.80;99.90
43627;DHT22;29217;52.586;13.442;2022-07-10T02:43:37;13.80;99.90
43627;DHT22;29217;52.586;13.442;2022-07-10T02:46:03;13.80;99.90
43627;DHT22;29217;52.586;13.442;2022-07-10T02:48:29;13.80;99.90
43627;DHT22;29217;52.586;13.442;2022-07-10T02:50:54;13.80;99.90
43627;DHT22;29217;52.586;13.442;2022-07-10T02:53:20;13.80;99.90
43627;DHT22;29217;52.586;13.442;2022-07-10T02:55:45;13.70;99.90
43627;DHT22;29217;52.586;13.442;2022-07-10T02:58:11;13.70;99.90
43627;DHT22;29217;52.586;13.442;2022-07-10T03:00:37;13.70;99.90
43627;DHT22;29217;52.586;13.442;2022-07-10T03:03:02;13.70;99.90
43627;DHT22;29217;52.586;13.442;2022-07-10T03:05:28;13.70;99.90
43627;DHT22;29217;52.586;13.442;2022-07-10T03:07:54;13.70;99.90
43627;DHT22;29217;52.586;13.442;2022-07-10T03:10:20;13.60;99.90
43627;DHT22;29217;52.586;13.442;2022-07-10T03:12:46;13.60;99.90
43627;DHT22;29217;52.586;13.442;2022-07-10T03:15:12;13.60;99.90
43627;DHT22;29217;52.586;13.442;2022-07-10T03:17:38;13.60;99.90
43627;DHT22;29217;52.586;13.442;2022-07-10T03:20:05;13.60;99.90
43627;DHT22;29217;52.586;13.442;2022-07-10T03:22:31;13.60;99.90
43627;DHT22;29217;52.586;13.442;2022-07-10T03:24:58;13.60;99.90
43627;DHT22;29217;52.586;13.442;2022-07-10T03:27:23;13.60;99.90
43627;DHT22;29217;52.586;13.442;2022-07-10T03:29:49;13.60;99.90
43627;DHT22;29217;52.586;13.442;2022-07-10T03:32:15;13.60;99.90
43627;DHT22;29217;52.586;13.442;2022-07-10T03:34:40;13.60;99.90
43627;DHT22;29217;52.586;13.442;2022-07-10T03:37:06;13.60;99.90
43627;DHT22;29217;52.586;13.442;2022-07-10T03:39:31;13.60;99.90
43627;DHT22;29217;52.586;13.442;2022-07-10T03:41:57;13.60;99.90
43627;DHT22;29217;52.586;13.442;2022-07-10T03:44:22;13.60;99.90
43627;DHT22;29217;52.586;13.442;2022-07-10T03:46:48;13.60;99.90
43627;DHT22;29217;52.586;13.442;2022-07-10T03:49:14;13.60;99.90
43627;DHT22;29217;52.586;13.442;2022-07-10T03:51:39;13.60;99.90
43627;DHT22;29217;52.586;13.442;2022-07-10T03:54:05;13.60;99.90
43627;DHT22;29217;52.586;13.442;2022-07-10T03:56:30;13.60;99.90
43627;DHT22;29217;52.586;13.442;2022-07-10T03:59:14;13.60;99.90
43627;DHT22;29217;52.586;13.442;2022-07-10T04:01:40;13.60;99.90
43627;DHT22;29217;52.586;13.442;2022-07-10T04:04:05;13.60;99.90
43627;DHT22;29217;52.586;13.442;2022-07-10T04:06:31;13.60;99.90
43627;DHT22;29217;52.586;13.442;2022-07-10T04:08:56;13.60;99.90
43627;DHT22;29217;52.586;13.442;2022-07-10T04:11:22;13.60;99.90
43627;DHT22;29217;52.586;13.442;2022-07-10T04:13:47;13.60;99.90
43627;DHT22;29217;52.586;13.442;2022-07-10T04:16:13;13.60;99.90
43627;DHT22;29217;52.586;13.442;2022-07-10T04:18:39;13.70;99.90
43627;DHT22;29217;52.586;13.442;2022-07-10T04:21:05;13.70;99.90
43627;DHT22;29217;52.586;13.442;2022-07-10T04:23:34;13.70;99.90
43627;DHT22;29217;52.586;13.442;2022-07-10T04:26:01;13.70;99.90
43627;DHT22;29217;52.586;13.442;2022-07-10T04:28:26;13.70;99.90
43627;DHT22;29217;52.586;13.442;2022-07-10T04:30:52;13.70;99.90
43627;DHT22;29217;52.586;13.442;2022-07-10T04:33:17;13.70;99.90
43627;DHT22;29217;52.586;13.442;2022-07-10T04:35:43;13.70;99.90
43627;DHT22;29217;52.586;13.442;2022-07-10T04:38:08;13.70;99.90
43627;DHT22;29217;52.586;13.442;2022-07-10T04:40:34;13.70;99.90
43627;DHT22;29217;52.586;13.442;2022-07-10T04:43:00;13.70;99.90
43627;DHT22;29217;52.586;13.442;2022-07-10T04:45:25;13.80;99.90
43627;DHT22;29217;52.586;13.442;2022-07-10T04:47:51;13.80;99.90
43627;DHT22;29217;52.586;13.442;2022-07-10T04:50:17;13.80;99.90
43627;DHT22;29217;52.586;13.442;2022-07-10T04:52:42;13.90;99.90
43627;DHT22;29217;52.586;13.442;2022-07-10T04:55:08;13.80;99.90
43627;DHT22;29217;52.586;13.442;2022-07-10T04:57:34;13.90;99.90
43627;DHT22;29217;52.586;13.442;2022-07-10T05:00:00;13.90;99.90
43627;DHT22;29217;52.586;13.442;2022-07-10T05:02:26;14.00;99.90
43627;DHT22;29217;52.586;13.442;2022-07-10T05:04:51;13.90;99.90
43627;DHT22;29217;52.586;13.442;2022-07-10T05:07:17;13.90;99.90
43627;DHT22;29217;52.586;13.442;2022-07-10T05:09:42;13.90;99.90
43627;DHT22;29217;52.586;13.442;2022-07-10T05:12:08;13.90;99.90
43627;DHT22;29217;52.586;13.442;2022-07-10T05:14:33;13.90;99.90
43627;DHT22;29217;52.586;13.442;2022-07-10T05:16:59;13.90;99.90
43627;DHT22;29217;52.586;13.442;2022-07-10T05:19:24;14.00;99.90
43627;DHT22;29217;52.586;13.442;2022-07-10T05:21:50;14.00;99.90
43627;DHT22;29217;52.586;13.442;2022-07-10T05:24:16;14.10;99.90
43627;DHT22;29217;52.586;13.442;2022-07-10T05:26:41;14.10;99.90
43627;DHT22;29217;52.586;13.442;2022-07-10T05:29:07;14.10;99.90
43627;DHT22;29217;52.586;13.442;2022-07-10T05:31:32;14.10;99.90
43627;DHT22;29217;52.586;13.442;2022-07-10T05:33:58;14.20;99.90
43627;DHT22;29217;52.586;13.442;2022-07-10T05:36:23;14.20;99.90
43627;DHT22;29217;52.586;13.442;2022-07-10T05:38:49;14.30;99.90
43627;DHT22;29217;52.586;13.442;2022-07-10T05:41:15;14.30;99.90
43627;DHT22;29217;52.586;13.442;2022-07-10T05:43:41;14.30;99.90
43627;DHT22;29217;52.586;13.442;2022-07-10T05:46:06;14.30;99.90
43627;DHT22;29217;52.586;13.442;2022-07-10T05:48:32;14.30;99.90
43627;DHT22;29217;52.586;13.442;2022-07-10T05:50:57;14.30;99.90
43627;DHT22;29217;52.586;13.442;2022-07-10T05:53:23;14.20;99.90
43627;DHT22;29217;52.586;13.442;2022-07-10T05:55:49;14.30;99.90
43627;DHT22;29217;52.586;13.442;2022-07-10T05:58:16;14.30;99.90
43627;DHT22;29217;52.586;13.442;2022-07-10T06:00:42;14.40;99.90
43627;DHT22;29217;52.586;13.442;2022-07-10T06:03:09;14.40;99.90
43627;DHT22;29217;52.586;13.442;2022-07-10T06:05:35;14.40;99.90
43627;DHT22;29217;52.586;13.442;2022-07-10T06:08:02;14.30;99.90
43627;DHT22;29217;52.586;13.442;2022-07-10T06:10:27;14.30;99.90
43627;DHT22;29217;52.586;13.442;2022-07-10T06:12:53;14.40;99.90
43627;DHT22;29217;52.586;13.442;2022-07-10T06:15:18;14.30;99.90
43627;DHT22;29217;52.586;13.442;2022-07-10T06:17:44;14.20;99.90
43627;DHT22;29217;52.586;13.442;2022-07-10T06:20:10;14.30;99.90
43627;DHT22;29217;52.586;13.442;2022-07-10T06:22:35;14.30;99.90
43627;DHT22;29217;52.586;13.442;2022-07-10T06:25:06;14.40;99.90
43627;DHT22;29217;52.586;13.442;2022-07-10T06:27:32;14.50;99.90
43627;DHT22;29217;52.586;13.442;2022-07-10T06:29:58;14.50;99.90
43627;DHT22;29217;52.586;13.442;2022-07-10T06:32:24;14.60;99.90
43627;DHT22;29217;52.586;13.442;2022-07-10T06:34:54;14.70;99.90
43627;DHT22;29217;52.586;13.442;2022-07-10T06:37:20;14.70;99.90
43627;DHT22;29217;52.586;13.442;2022-07-10T06:39:46;14.80;99.90
43627;DHT22;29217;52.586;13.442;2022-07-10T06:42:15;14.80;99.90
43627;DHT22;29217;52.586;13.442;2022-07-10T06:44:42;14.70;99.90
43627;DHT22;29217;52.586;13.442;2022-07-10T06:47:08;14.70;99.90
43627;DHT22;29217;52.586;13.442;2022-07-10T06:49:53;14.80;99.90
43627;DHT22;29217;52.586;13.442;2022-07-10T06:52:19;14.90;99.90
43627;DHT22;29217;52.586;13.442;2022-07-10T06:54:45;15.00;99.90
43627;DHT22;29217;52.586;13.442;2022-07-10T06:57:11;15.10;99.90
43627;DHT22;29217;52.586;13.442;2022-07-10T06:59:36;15.20;99.90
43627;DHT22;29217;52.586;13.442;2022-07-10T07:02:03;15.30;99.90
43627;DHT22;29217;52.586;13.442;2022-07-10T07:04:28;15.50;99.90
43627;DHT22;29217;52.586;13.442;2022-07-10T07:06:54;15.50;99.90
43627;DHT22;29217;52.586;13.442;2022-07-10T07:09:20;15.60;99.90
43627;DHT22;29217;52.586;13.442;2022-07-10T07:11:45;15.60;99.90
43627;DHT22;29217;52.586;13.442;2022-07-10T07:14:11;15.60;99.90
43627;DHT22;29217;52.586;13.442;2022-07-10T07:16:37;15.70;99.90
43627;DHT22;29217;52.586;13.442;2022-07-10T07:19:11;15.80;99.90
43627;DHT22;29217;52.586;13.442;2022-07-10T07:21:37;15.80;99.90
43627;DHT22;29217;52.586;13.442;2022-07-10T07:24:22;15.80;99.90
43627;DHT22;29217;52.586;13.442;2022-07-10T07:26:48;15.70;99.90
43627;DHT22;29217;52.586;13.442;2022-07-10T07:29:15;15.70;99.90
43627;DHT22;29217;52.586;13.442;2022-07-10T07:31:40;15.70;99.90
43627;DHT22;29217;52.586;13.442;2022-07-10T07:34:06;15.80;99.90
43627;DHT22;29217;52.586;13.442;2022-07-10T07:36:31;15.80;99.90
43627;DHT22;29217;52.586;13.442;2022-07-10T07:38:57;16.00;99.90
43627;DHT22;29217;52.586;13.442;2022-07-10T07:41:23;16.10;99.90
43627;DHT22;29217;52.586;13.442;2022-07-10T07:43:49;16.20;99.90
43627;DHT22;29217;52.586;13.442;2022-07-10T07:46:14;16.30;99.90
43627;DHT22;29217;52.586;13.442;2022-07-10T07:48:40;16.40;99.90
43627;DHT22;29217;52.586;13.442;2022-07-10T07:51:06;16.40;99.90
43627;DHT22;29217;52.586;13.442;2022-07-10T07:53:32;16.40;99.90
43627;DHT22;29217;52.586;13.442;2022-07-10T07:55:58;16.50;99.90
43627;DHT22;29217;52.586;13.442;2022-07-10T07:58:23;16.40;99.90
43627;DHT22;29217;52.586;13.442;2022-07-10T08:00:49;16.40;99.90
43627;DHT22;29217;52.586;13.442;2022-07-10T08:03:14;16.40;99.90
43627;DHT22;29217;52.586;13.442;2022-07-10T08:05:41;16.40;99.90
43627;DHT22;29217;52.586;13.442;2022-07-10T08:08:06;16.40;99.90
43627;DHT22;29217;52.586;13.442;2022-07-10T08:10:34;16.40;99.90
43627;DHT22;29217;52.586;13.442;2022-07-10T08:13:00;16.50;99.90
43627;DHT22;29217;52.586;13.442;2022-07-10T08:15:26;16.50;99.90
43627;DHT22;29217;52.586;13.442;2022-07-10T08:17:57;16.50;99.90
43627;DHT22;29217;52.586;13.442;2022-07-10T08:20:24;16.50;99.90
43627;DHT22;29217;52.586;13.442;2022-07-10T08:22:50;16.50;99.90
43627;DHT22;29217;52.586;13.442;2022-07-10T08:25:16;16.60;99.90
43627;DHT22;29217;52.586;13.442;2022-07-10T08:27:42;16.60;99.90
43627;DHT22;29217;52.586;13.442;2022-07-10T08:30:09;16.70;99.90
43627;DHT22;29217;52.586;13.442;2022-07-10T08:32:35;16.80;99.90
43627;DHT22;29217;52.586;13.442;2022-07-10T08:35:02;16.80;99.90
43627;DHT22;29217;52.586;13.442;2022-07-10T08:37:28;16.80;99.90
43627;DHT22;29217;52.586;13.442;2022-07-10T08:39:54;16.70;99.90
43627;DHT22;29217;52.586;13.442;2022-07-10T08:42:20;16.70;99.90
43627;DHT22;29217;52.586;13.442;2022-07-10T08:44:46;16.70;99.90
43627;DHT22;29217;52.586;13.442;2022-07-10T08:47:12;16.80;99.90
43627;DHT22;29217;52.586;13.442;2022-07-10T08:49:46;16.80;99.90
43627;DHT22;29217;52.586;13.442;2022-07-10T08:52:26;16.90;99.90
43627;DHT22;29217;52.586;13.442;2022-07-10T08:54:53;16.90;99.90
43627;DHT22;29217;52.586;13.442;2022-07-10T08:57:19;16.90;99.90
43627;DHT22;29217;52.586;13.442;2022-07-10T08:59:45;17.00;99.90
43627;DHT22;29217;52.586;13.442;2022-07-10T09:02:10;16.90;99.90
43627;DHT22;29217;52.586;13.442;2022-07-10T09:04:36;17.00;99.90
43627;DHT22;29217;52.586;13.442;2022-07-10T09:07:02;17.10;99.90
43627;DHT22;29217;52.586;13.442;2022-07-10T09:09:29;17.00;99.90
43627;DHT22;29217;52.586;13.442;2022-07-10T09:11:56;17.10;99.90
43627;DHT22;29217;52.586;13.442;2022-07-10T09:14:23;17.30;99.90
43627;DHT22;29217;52.586;13.442;2022-07-10T09:16:51;17.30;99.90
43627;DHT22;29217;52.586;13.442;2022-07-10T09:21:42;17.30;99.90
43627;DHT22;29217;52.586;13.442;2022-07-10T09:24:08;17.50;99.90
43627;DHT22;29217;52.586;13.442;2022-07-10T09:26:38;17.60;99.90
43627;DHT22;29217;52.586;13.442;2022-07-10T09:29:09;17.60;99.90
43627;DHT22;29217;52.586;13.442;2022-07-10T09:31:50;17.70;99.90
43627;DHT22;29217;52.586;13.442;2022-07-10T09:34:17;17.80;99.90
43627;DHT22;29217;52.586;13.442;2022-07-10T09:36:43;17.90;99.90
43627;DHT22;29217;52.586;13.442;2022-07-10T09:39:09;17.90;99.90
43627;DHT22;29217;52.586;13.442;2022-07-10T09:41:34;17.90;99.90
43627;DHT22;29217;52.586;13.442;2022-07-10T09:44:02;18.00;99.90
43627;DHT22;29217;52.586;13.442;2022-07-10T09:46:39;18.00;99.90
43627;DHT22;29217;52.586;13.442;2022-07-10T09:51:35;17.80;99.90
43627;DHT22;29217;52.586;13.442;2022-07-10T09:54:03;17.80;99.90
43627;DHT22;29217;52.586;13.442;2022-07-10T09:59:09;17.90;99.90
43627;DHT22;29217;52.586;13.442;2022-07-10T10:01:36;18.10;99.90
43627;DHT22;29217;52.586;13.442;2022-07-10T10:04:03;18.10;99.90
43627;DHT22;29217;52.586;13.442;2022-07-10T10:06:30;18.10;99.90
43627;DHT22;29217;52.586;13.442;2022-07-10T10:11:26;18.00;99.90
43627;DHT22;29217;52.586;13.442;2022-07-10T10:13:52;17.90;99.90
43627;DHT22;29217;52.586;13.442;2022-07-10T10:16:19;17.80;99.90
43627;DHT22;29217;52.586;13.442;2022-07-10T10:18:46;17.70;99.90
43627;DHT22;29217;52.586;13.442;2022-07-10T10:21:32;17.50;99.90
43627;DHT22;29217;52.586;13.442;2022-07-10T10:24:01;17.50;99.90
43627;DHT22;29217;52.586;13.442;2022-07-10T10:26:26;17.50;99.90
43627;DHT22;29217;52.586;13.442;2022-07-10T10:28:52;17.50;99.90
43627;DHT22;29217;52.586;13.442;2022-07-10T10:31:20;17.50;99.90
43627;DHT22;29217;52.586;13.442;2022-07-10T10:33:47;17.50;99.90
43627;DHT22;29217;52.586;13.442;2022-07-10T10:36:42;17.60;99.90
43627;DHT22;29217;52.586;13.442;2022-07-10T10:39:04;17.60;99.90
43627;DHT22;29217;52.586;13.442;2022-07-10T10:41:39;17.70;99.90
43627;DHT22;29217;52.586;13.442;2022-07-10T10:49:20;17.80;99.90
43627;DHT22;29217;52.586;13.442;2022-07-10T10:51:58;17.90;99.90
43627;DHT22;29217;52.586;13.442;2022-07-10T10:54:25;18.00;99.90
43627;DHT22;29217;52.586;13.442;2022-07-10T10:57:17;18.00;99.90
43627;DHT22;29217;52.586;13.442;2022-07-10T10:59:55;17.90;99.90
43627;DHT22;29217;52.586;13.442;2022-07-10T11:02:32;18.00;99.90
43627;DHT22;29217;52.586;13.442;2022-07-10T11:07:54;18.10;99.90
43627;DHT22;29217;52.586;13.442;2022-07-10T11:10:42;18.10;99.90
43627;DHT22;29217;52.586;13.442;2022-07-10T11:13:13;18.20;99.90
43627;DHT22;29217;52.586;13.442;2022-07-10T11:15:41;18.20;99.90
43627;DHT22;29217;52.586;13.442;2022-07-10T11:18:11;18.30;99.90
43627;DHT22;29217;52.586;13.442;2022-07-10T11:20:40;18.20;99.90
43627;DHT22;29217;52.586;13.442;2022-07-10T11:25:53;18.50;99.90
43627;DHT22;29217;52.586;13.442;2022-07-10T11:31:07;18.60;99.90
43627;DHT22;29217;52.586;13.442;2022-07-10T11:33:44;18.50;99.90
43627;DHT22;29217;52.586;13.442;2022-07-10T11:36:15;18.70;99.90
43627;DHT22;29217;52.586;13.442;2022-07-10T11:38:42;18.70;99.90
43627;DHT22;29217;52.586;13.442;2022-07-10T11:41:19;18.80;99.90
43627;DHT22;29217;52.586;13.442;2022-07-10T11:43:56;18.80;99.90
43627;DHT22;29217;52.586;13.442;2022-07-10T11:46:30;19.20;99.90
43627;DHT22;29217;52.586;13.442;2022-07-10T11:48:57;19.80;99.90
43627;DHT22;29217;52.586;13.442;2022-07-10T11:51:34;19.60;99.90
43627;DHT22;29217;52.586;13.442;2022-07-10T11:54:04;19.50;99.90
43627;DHT22;29217;52.586;13.442;2022-07-10T11:56:32;19.20;99.90
43627;DHT22;29217;52.586;13.442;2022-07-10T11:59:03;19.20;99.90
43627;DHT22;29217;52.586;13.442;2022-07-10T12:01:30;19.00;99.90
43627;DHT22;29217;52.586;13.442;2022-07-10T12:04:03;19.10;99.90
43627;DHT22;29217;52.586;13.442;2022-07-10T12:06:31;19.20;99.90
43627;DHT22;29217;52.586;13.442;2022-07-10T12:09:02;19.40;99.90
43627;DHT22;29217;52.586;13.442;2022-07-10T12:11:27;19.70;99.90
43627;DHT22;29217;52.586;13.442;2022-07-10T12:13:54;19.70;99.90
43627;DHT22;29217;52.586;13.442;2022-07-10T12:16:35;19.70;99.90
43627;DHT22;29217;52.586;13.442;2022-07-10T12:19:01;19.90;99.90
43627;DHT22;29217;52.586;13.442;2022-07-10T12:21:28;20.50;99.90
43627;DHT22;29217;52.586;13.442;2022-07-10T12:23:54;21.10;99.90
43627;DHT22;29217;52.586;13.442;2022-07-10T12:26:20;21.10;99.90
43627;DHT22;29217;52.586;13.442;2022-07-10T12:28:54;21.00;99.90
43627;DHT22;29217;52.586;13.442;2022-07-10T12:31:28;20.80;99.90
43627;DHT22;29217;52.586;13.442;2022-07-10T12:33:56;20.70;99.90
43627;DHT22;29217;52.586;13.442;2022-07-10T12:36:24;20.50;99.90
43627;DHT22;29217;52.586;13.442;2022-07-10T12:38:54;20.70;99.90
43627;DHT22;29217;52.586;13.442;2022-07-10T12:41:21;20.70;99.90
43627;DHT22;29217;52.586;13.442;2022-07-10T12:43:50;20.80;99.90
43627;DHT22;29217;52.586;13.442;2022-07-10T12:46:22;20.90;99.90
43627;DHT22;29217;52.586;13.442;2022-07-10T12:49:10;21.10;99.90
43627;DHT22;29217;52.586;13.442;2022-07-10T12:54:05;21.00;99.90
43627;DHT22;29217;52.586;13.442;2022-07-10T12:56:36;20.80;99.90
43627;DHT22;29217;52.586;13.442;2022-07-10T12:59:13;21.00;99.90
43627;DHT22;29217;52.586;13.442;2022-07-10T13:01:43;21.50;99.90
43627;DHT22;29217;52.586;13.442;2022-07-10T13:04:09;21.80;99.90
43627;DHT22;29217;52.586;13.442;2022-07-10T13:06:35;21.70;99.90
43627;DHT22;29217;52.586;13.442;2022-07-10T13:09:02;21.40;99.90
43627;DHT22;29217;52.586;13.442;2022-07-10T13:11:28;21.00;99.90
43627;DHT22;29217;52.586;13.442;2022-07-10T13:13:54;20.80;99.90
43627;DHT22;29217;52.586;13.442;2022-07-10T13:16:21;20.90;99.90
43627;DHT22;29217;52.586;13.442;2022-07-10T13:18:46;21.30;99.90
43627;DHT22;29217;52.586;13.442;2022-07-10T13:21:12;21.60;99.90
43627;DHT22;29217;52.586;13.442;2022-07-10T13:23:38;21.60;99.90
43627;DHT22;29217;52.586;13.442;2022-07-10T13:26:05;21.80;99.90
43627;DHT22;29217;52.586;13.442;2022-07-10T13:28:33;21.80;99.90
43627;DHT22;29217;52.586;13.442;2022-07-10T13:30:59;21.50;99.90
43627;DHT22;29217;52.586;13.442;2022-07-10T13:33:25;21.60;99.90
43627;DHT22;29217;52.586;13.442;2022-07-10T13:35:51;21.20;99.90
43627;DHT22;29217;52.586;13.442;2022-07-10T13:38:17;21.00;99.90
43627;DHT22;29217;52.586;13.442;2022-07-10T13:40:44;20.50;99.90
43627;DHT22;29217;52.586;13.442;2022-07-10T13:43:11;20.50;99.90
43627;DHT22;29217;52.586;13.442;2022-07-10T13:45:38;20.30;99.90
43627;DHT22;29217;52.586;13.442;2022-07-10T13:48:09;20.20;99.90
43627;DHT22;29217;52.586;13.442;2022-07-10T13:50:36;20.40;99.90
43627;DHT22;29217;52.586;13.442;2022-07-10T13:53:02;20.70;99.90
43627;DHT22;29217;52.586;13.442;2022-07-10T13:55:28;20.70;99.90
43627;DHT22;29217;52.586;13.442;2022-07-10T13:57:54;21.10;99.90
43627;DHT22;29217;52.586;13.442;2022-07-10T14:00:19;21.60;99.90
43627;DHT22;29217;52.586;13.442;2022-07-10T14:02:45;21.60;99.90
43627;DHT22;29217;52.586;13.442;2022-07-10T14:05:10;21.30;99.90
43627;DHT22;29217;52.586;13.442;2022-07-10T14:07:36;21.10;99.90
43627;DHT22;29217;52.586;13.442;2022-07-10T14:10:02;20.90;99.90
43627;DHT22;29217;52.586;13.442;2022-07-10T14:12:28;21.10;99.90
43627;DHT22;29217;52.586;13.442;2022-07-10T14:14:53;21.50;99.90
43627;DHT22;29217;52.586;13.442;2022-07-10T14:17:19;21.90;99.90
43627;DHT22;29217;52.586;13.442;2022-07-10T14:19:45;22.20;99.90
43627;DHT22;29217;52.586;13.442;2022-07-10T14:22:11;22.50;99.90
43627;DHT22;29217;52.586;13.442;2022-07-10T14:24:36;22.70;99.90
43627;DHT22;29217;52.586;13.442;2022-07-10T14:27:02;22.80;99.90
43627;DHT22;29217;52.586;13.442;2022-07-10T14:29:28;23.00;99.90
43627;DHT22;29217;52.586;13.442;2022-07-10T14:31:54;23.00;99.90
43627;DHT22;29217;52.586;13.442;2022-07-10T14:34:19;23.20;99.90
43627;DHT22;29217;52.586;13.442;2022-07-10T14:36:45;22.90;99.90
43627;DHT22;29217;52.586;13.442;2022-07-10T14:39:11;22.70;99.90
43627;DHT22;29217;52.586;13.442;2022-07-10T14:41:37;22.70;99.90
43627;DHT22;29217;52.586;13.442;2022-07-10T14:44:03;22.90;99.90
43627;DHT22;29217;52.586;13.442;2022-07-10T14:46:29;22.90;99.90
43627;DHT22;29217;52.586;13.442;2022-07-10T14:48:54;22.70;99.90
43627;DHT22;29217;52.586;13.442;2022-07-10T14:51:20;22.50;99.90
43627;DHT22;29217;52.586;13.442;2022-07-10T14:53:45;22.40;99.90
43627;DHT22;29217;52.586;13.442;2022-07-10T14:56:13;22.40;99.90
43627;DHT22;29217;52.586;13.442;2022-07-10T14:58:42;22.40;99.90
43627;DHT22;29217;52.586;13.442;2022-07-10T15:01:07;22.40;99.90
43627;DHT22;29217;52.586;13.442;2022-07-10T15:03:33;22.30;99.90
43627;DHT22;29217;52.586;13.442;2022-07-10T15:05:58;22.20;99.90
43627;DHT22;29217;52.586;13.442;2022-07-10T15:08:24;22.00;99.90
43627;DHT22;29217;52.586;13.442;2022-07-10T15:10:49;21.90;99.90
43627;DHT22;29217;52.586;13.442;2022-07-10T15:13:16;21.70;99.90
43627;DHT22;29217;52.586;13.442;2022-07-10T15:15:41;21.50;99.90
43627;DHT22;29217;52.586;13.442;2022-07-10T15:18:08;21.30;99.90
43627;DHT22;29217;52.586;13.442;2022-07-10T15:20:34;21.30;99.90
43627;DHT22;29217;52.586;13.442;2022-07-10T15:23:00;21.30;99.90
43627;DHT22;29217;52.586;13.442;2022-07-10T15:25:26;21.20;99.90
43627;DHT22;29217;52.586;13.442;2022-07-10T15:27:52;21.20;99.90
43627;DHT22;29217;52.586;13.442;2022-07-10T15:30:18;21.30;99.90
43627;DHT22;29217;52.586;13.442;2022-07-10T15:32:44;21.20;99.90
43627;DHT22;29217;52.586;13.442;2022-07-10T15:35:11;21.10;99.90
43627;DHT22;29217;52.586;13.442;2022-07-10T15:37:36;21.10;99.90
43627;DHT22;29217;52.586;13.442;2022-07-10T15:40:03;21.10;99.90